sensor_id;sensor_type;location;lat;lon;timestamp;P1;durP1;ratioP1;P2;durP2;ratioP2
69005;SDS011;56061;51.748;19.620;2024-02-23T00:01:06;11.80;;;6.10;;
69005;SDS011;56061;51.748;19.620;2024-02-23T00:03:33;12.70;;;6.50;;
69005;SDS011;56061;51.748;19.620;2024-02-23T00:06:02;12.70;;;6.50;;
69005;SDS011;56061;51.748;19.620;2024-02-23T00:08:29;9.90;;;5.20;;
69005;SDS011;56061;51.748;19.620;2024-02-23T00:10:55;10.80;;;5.70;;
69005;SDS011;56061;51.748;19.620;2024-02-23T00:13:22;11.10;;;5.70;;
69005;SDS011;56061;51.748;19.620;2024-02-23T00:15:49;12.60;;;6.10;;
69005;SDS011;56061;51.748;19.620;2024-02-23T00:18:15;9.60;;;5.00;;
69005;SDS011;56061;51.748;19.620;2024-02-23T00:20:43;13.10;;;5.70;;
69005;SDS011;56061;51.748;19.620;2024-02-23T00:23:10;12.50;;;5.80;;
69005;SDS011;56061;51.748;19.620;2024-02-23T00:25:37;12.80;;;5.90;;
69005;SDS011;56061;51.748;19.620;2024-02-23T00:28:04;11.00;;;5.70;;
69005;SDS011;56061;51.748;19.620;2024-02-23T00:30:30;10.30;;;5.30;;
69005;SDS011;56061;51.748;19.620;2024-02-23T00:32:57;11.50;;;6.20;;
69005;SDS011;56061;51.748;19.620;2024-02-23T00:35:23;10.50;;;5.70;;
69005;SDS011;56061;51.748;19.620;2024-02-23T00:37:50;11.70;;;5.60;;
69005;SDS011;56061;51.748;19.620;2024-02-23T00:40:16;10.80;;;5.70;;
69005;SDS011;56061;51.748;19.620;2024-02-23T00:42:43;10.10;;;5.00;;
69005;SDS011;56061;51.748;19.620;2024-02-23T00:45:09;9.20;;;5.30;;
69005;SDS011;56061;51.748;19.620;2024-02-23T00:47:36;10.70;;;5.10;;
69005;SDS011;56061;51.748;19.620;2024-02-23T00:50:04;9.70;;;5.20;;
69005;SDS011;56061;51.748;19.620;2024-02-23T00:52:31;9.90;;;5.40;;
69005;SDS011;56061;51.748;19.620;2024-02-23T00:54:58;12.40;;;5.90;;
69005;SDS011;56061;51.748;19.620;2024-02-23T00:57:25;8.90;;;5.00;;
69005;SDS011;56061;51.748;19.620;2024-02-23T00:59:56;9.20;;;4.70;;
69005;SDS011;56061;51.748;19.620;2024-02-23T01:02:23;11.20;;;5.60;;
69005;SDS011;56061;51.748;19.620;2024-02-23T01:04:50;11.20;;;5.20;;
69005;SDS011;56061;51.748;19.620;2024-02-23T01:07:17;11.10;;;5.10;;
69005;SDS011;56061;51.748;19.620;2024-02-23T01:09:43;13.00;;;5.90;;
69005;SDS011;56061;51.748;19.620;2024-02-23T01:12:10;13.60;;;5.70;;
69005;SDS011;56061;51.748;19.620;2024-02-23T01:14:36;10.00;;;5.00;;
69005;SDS011;56061;51.748;19.620;2024-02-23T01:17:03;9.60;;;5.40;;
69005;SDS011;56061;51.748;19.620;2024-02-23T01:19:29;10.80;;;5.80;;
69005;SDS011;56061;51.748;19.620;2024-02-23T01:21:56;9.40;;;4.80;;
69005;SDS011;56061;51.748;19.620;2024-02-23T01:24:26;11.10;;;5.40;;
69005;SDS011;56061;51.748;19.620;2024-02-23T01:26:55;12.00;;;5.40;;
69005;SDS011;56061;51.748;19.620;2024-02-23T01:29:22;9.50;;;5.30;;
69005;SDS011;56061;51.748;19.620;2024-02-23T01:31:49;10.00;;;4.60;;
69005;SDS011;56061;51.748;19.620;2024-02-23T01:34:16;10.10;;;5.10;;
69005;SDS011;56061;51.748;19.620;2024-02-23T01:36:42;9.00;;;4.20;;
69005;SDS011;56061;51.748;19.620;2024-02-23T01:39:10;10.30;;;4.80;;
69005;SDS011;56061;51.748;19.620;2024-02-23T01:41:37;10.80;;;5.50;;
69005;SDS011;56061;51.748;19.620;2024-02-23T01:44:04;11.80;;;5.30;;
69005;SDS011;56061;51.748;19.620;2024-02-23T01:46:32;10.30;;;5.10;;
69005;SDS011;56061;51.748;19.620;2024-02-23T01:48:59;11.40;;;5.60;;
69005;SDS011;56061;51.748;19.620;2024-02-23T01:51:25;10.20;;;4.70;;
69005;SDS011;56061;51.748;19.620;2024-02-23T01:53:53;10.20;;;5.00;;
69005;SDS011;56061;51.748;19.620;2024-02-23T01:56:20;9.30;;;4.60;;
69005;SDS011;56061;51.748;19.620;2024-02-23T01:58:47;9.60;;;4.40;;
69005;SDS011;56061;51.748;19.620;2024-02-23T02:01:14;12.40;;;4.60;;
69005;SDS011;56061;51.748;19.620;2024-02-23T02:03:41;10.70;;;5.20;;
69005;SDS011;56061;51.748;19.620;2024-02-23T02:06:09;9.50;;;4.70;;
69005;SDS011;56061;51.748;19.620;2024-02-23T02:08:37;10.40;;;4.20;;
69005;SDS011;56061;51.748;19.620;2024-02-23T02:11:04;9.00;;;3.80;;
69005;SDS011;56061;51.748;19.620;2024-02-23T02:13:31;8.60;;;3.70;;
69005;SDS011;56061;51.748;19.620;2024-02-23T02:18:26;7.60;;;3.80;;
69005;SDS011;56061;51.748;19.620;2024-02-23T02:20:56;10.50;;;4.90;;
69005;SDS011;56061;51.748;19.620;2024-02-23T02:23:24;7.60;;;4.10;;
69005;SDS011;56061;51.748;19.620;2024-02-23T02:25:56;8.90;;;3.80;;
69005;SDS011;56061;51.748;19.620;2024-02-23T02:28:24;8.30;;;4.00;;
69005;SDS011;56061;51.748;19.620;2024-02-23T02:30:52;9.90;;;4.60;;
69005;SDS011;56061;51.748;19.620;2024-02-23T02:33:22;9.30;;;4.40;;
69005;SDS011;56061;51.748;19.620;2024-02-23T02:35:49;8.90;;;3.90;;
69005;SDS011;56061;51.748;19.620;2024-02-23T02:38:16;8.60;;;4.00;;
69005;SDS011;56061;51.748;19.620;2024-02-23T02:40:43;8.30;;;4.00;;
69005;SDS011;56061;51.748;19.620;2024-02-23T02:43:10;9.70;;;4.00;;
69005;SDS011;56061;51.748;19.620;2024-02-23T02:45:37;9.00;;;4.00;;
69005;SDS011;56061;51.748;19.620;2024-02-23T02:48:04;7.50;;;4.00;;
69005;SDS011;56061;51.748;19.620;2024-02-23T02:50:31;8.50;;;4.10;;
69005;SDS011;56061;51.748;19.620;2024-02-23T02:52:58;8.20;;;3.80;;
69005;SDS011;56061;51.748;19.620;2024-02-23T02:55:23;8.90;;;4.30;;
69005;SDS011;56061;51.748;19.620;2024-02-23T02:57:50;10.00;;;4.00;;
69005;SDS011;56061;51.748;19.620;2024-02-23T03:00:16;9.50;;;4.40;;
69005;SDS011;56061;51.748;19.620;2024-02-23T03:02:43;9.50;;;4.20;;
69005;SDS011;56061;51.748;19.620;2024-02-23T03:05:09;7.60;;;3.80;;
69005;SDS011;56061;51.748;19.620;2024-02-23T03:07:36;10.00;;;4.00;;
69005;SDS011;56061;51.748;19.620;2024-02-23T03:10:03;7.70;;;3.90;;
69005;SDS011;56061;51.748;19.620;2024-02-23T03:12:30;7.80;;;3.80;;
69005;SDS011;56061;51.748;19.620;2024-02-23T03:14:56;8.40;;;3.90;;
69005;SDS011;56061;51.748;19.620;2024-02-23T03:17:23;7.90;;;4.20;;
69005;SDS011;56061;51.748;19.620;2024-02-23T03:19:50;9.70;;;4.90;;
69005;SDS011;56061;51.748;19.620;2024-02-23T03:22:17;7.80;;;3.90;;
69005;SDS011;56061;51.748;19.620;2024-02-23T03:24:43;9.20;;;3.90;;
69005;SDS011;56061;51.748;19.620;2024-02-23T03:27:10;7.80;;;3.70;;
69005;SDS011;56061;51.748;19.620;2024-02-23T03:29:38;8.50;;;3.70;;
69005;SDS011;56061;51.748;19.620;2024-02-23T03:32:06;7.40;;;3.90;;
69005;SDS011;56061;51.748;19.620;2024-02-23T03:34:33;7.50;;;3.20;;
69005;SDS011;56061;51.748;19.620;2024-02-23T03:37:00;7.70;;;4.20;;
69005;SDS011;56061;51.748;19.620;2024-02-23T03:39:29;8.50;;;4.00;;
69005;SDS011;56061;51.748;19.620;2024-02-23T03:41:55;7.30;;;3.60;;
69005;SDS011;56061;51.748;19.620;2024-02-23T03:44:22;9.40;;;4.80;;
69005;SDS011;56061;51.748;19.620;2024-02-23T03:46:49;8.00;;;4.10;;
69005;SDS011;56061;51.748;19.620;2024-02-23T03:49:16;8.10;;;3.40;;
69005;SDS011;56061;51.748;19.620;2024-02-23T03:51:43;7.40;;;3.50;;
69005;SDS011;56061;51.748;19.620;2024-02-23T03:54:09;7.10;;;3.40;;
69005;SDS011;56061;51.748;19.620;2024-02-23T03:56:42;7.80;;;3.40;;
69005;SDS011;56061;51.748;19.620;2024-02-23T03:59:09;7.90;;;3.60;;
69005;SDS011;56061;51.748;19.620;2024-02-23T04:01:39;9.30;;;4.40;;
69005;SDS011;56061;51.748;19.620;2024-02-23T04:04:06;8.10;;;4.10;;
69005;SDS011;56061;51.748;19.620;2024-02-23T04:06:33;10.00;;;4.40;;
69005;SDS011;56061;51.748;19.620;2024-02-23T04:09:01;8.00;;;4.00;;
69005;SDS011;56061;51.748;19.620;2024-02-23T04:11:31;8.20;;;4.00;;
69005;SDS011;56061;51.748;19.620;2024-02-23T04:13:59;7.80;;;3.50;;
69005;SDS011;56061;51.748;19.620;2024-02-23T04:16:27;9.10;;;4.20;;
69005;SDS011;56061;51.748;19.620;2024-02-23T04:18:54;10.60;;;4.80;;
69005;SDS011;56061;51.748;19.620;2024-02-23T04:21:20;9.10;;;4.80;;
69005;SDS011;56061;51.748;19.620;2024-02-23T04:23:47;9.30;;;4.70;;
69005;SDS011;56061;51.748;19.620;2024-02-23T04:26:14;9.50;;;4.70;;
69005;SDS011;56061;51.748;19.620;2024-02-23T04:28:41;8.90;;;4.70;;
69005;SDS011;56061;51.748;19.620;2024-02-23T04:31:09;8.60;;;4.80;;
69005;SDS011;56061;51.748;19.620;2024-02-23T04:33:36;8.50;;;4.10;;
69005;SDS011;56061;51.748;19.620;2024-02-23T04:36:04;9.40;;;4.50;;
69005;SDS011;56061;51.748;19.620;2024-02-23T04:38:32;9.10;;;4.50;;
69005;SDS011;56061;51.748;19.620;2024-02-23T04:43:25;8.50;;;4.50;;
69005;SDS011;56061;51.748;19.620;2024-02-23T04:45:52;8.20;;;4.30;;
69005;SDS011;56061;51.748;19.620;2024-02-23T04:48:18;9.00;;;4.00;;
69005;SDS011;56061;51.748;19.620;2024-02-23T04:50:45;8.80;;;4.70;;
69005;SDS011;56061;51.748;19.620;2024-02-23T04:53:11;8.10;;;4.00;;
69005;SDS011;56061;51.748;19.620;2024-02-23T04:55:38;9.90;;;4.10;;
69005;SDS011;56061;51.748;19.620;2024-02-23T04:58:05;9.40;;;4.60;;
69005;SDS011;56061;51.748;19.620;2024-02-23T05:00:32;8.90;;;4.50;;
69005;SDS011;56061;51.748;19.620;2024-02-23T05:03:01;8.40;;;4.20;;
69005;SDS011;56061;51.748;19.620;2024-02-23T05:05:30;8.50;;;4.30;;
69005;SDS011;56061;51.748;19.620;2024-02-23T05:07:58;8.50;;;4.60;;
69005;SDS011;56061;51.748;19.620;2024-02-23T05:10:24;8.90;;;4.70;;
69005;SDS011;56061;51.748;19.620;2024-02-23T05:12:50;8.70;;;4.60;;
69005;SDS011;56061;51.748;19.620;2024-02-23T05:15:17;8.00;;;4.00;;
69005;SDS011;56061;51.748;19.620;2024-02-23T05:17:43;9.30;;;4.60;;
69005;SDS011;56061;51.748;19.620;2024-02-23T05:20:10;10.90;;;5.00;;
69005;SDS011;56061;51.748;19.620;2024-02-23T05:22:38;11.10;;;5.10;;
69005;SDS011;56061;51.748;19.620;2024-02-23T05:25:06;8.80;;;4.80;;
69005;SDS011;56061;51.748;19.620;2024-02-23T05:27:33;10.90;;;5.50;;
69005;SDS011;56061;51.748;19.620;2024-02-23T05:29:59;8.40;;;4.90;;
69005;SDS011;56061;51.748;19.620;2024-02-23T05:32:26;12.20;;;5.20;;
69005;SDS011;56061;51.748;19.620;2024-02-23T05:34:53;10.70;;;6.00;;
69005;SDS011;56061;51.748;19.620;2024-02-23T05:37:20;10.40;;;4.90;;
69005;SDS011;56061;51.748;19.620;2024-02-23T05:39:47;10.10;;;5.50;;
69005;SDS011;56061;51.748;19.620;2024-02-23T05:42:13;10.20;;;4.80;;
69005;SDS011;56061;51.748;19.620;2024-02-23T05:44:43;10.40;;;4.90;;
69005;SDS011;56061;51.748;19.620;2024-02-23T05:47:11;10.80;;;5.00;;
69005;SDS011;56061;51.748;19.620;2024-02-23T05:49:40;9.60;;;4.60;;
69005;SDS011;56061;51.748;19.620;2024-02-23T05:52:06;9.60;;;5.10;;
69005;SDS011;56061;51.748;19.620;2024-02-23T05:54:33;8.60;;;4.40;;
69005;SDS011;56061;51.748;19.620;2024-02-23T05:56:59;9.40;;;5.10;;
69005;SDS011;56061;51.748;19.620;2024-02-23T05:59:27;8.50;;;5.00;;
69005;SDS011;56061;51.748;19.620;2024-02-23T06:01:54;9.40;;;4.70;;
69005;SDS011;56061;51.748;19.620;2024-02-23T06:04:23;12.80;;;5.90;;
69005;SDS011;56061;51.748;19.620;2024-02-23T06:06:50;13.30;;;6.60;;
69005;SDS011;56061;51.748;19.620;2024-02-23T06:09:17;11.30;;;5.90;;
69005;SDS011;56061;51.748;19.620;2024-02-23T06:11:45;13.30;;;7.90;;
69005;SDS011;56061;51.748;19.620;2024-02-23T06:14:12;11.70;;;7.20;;
69005;SDS011;56061;51.748;19.620;2024-02-23T06:16:39;8.60;;;4.80;;
69005;SDS011;56061;51.748;19.620;2024-02-23T06:19:06;10.20;;;5.90;;
69005;SDS011;56061;51.748;19.620;2024-02-23T06:21:33;10.20;;;5.60;;
69005;SDS011;56061;51.748;19.620;2024-02-23T06:24:00;9.80;;;5.10;;
69005;SDS011;56061;51.748;19.620;2024-02-23T06:26:52;9.70;;;5.00;;
69005;SDS011;56061;51.748;19.620;2024-02-23T06:29:18;9.50;;;5.00;;
69005;SDS011;56061;51.748;19.620;2024-02-23T06:31:45;9.50;;;5.00;;
69005;SDS011;56061;51.748;19.620;2024-02-23T06:34:15;8.80;;;5.10;;
69005;SDS011;56061;51.748;19.620;2024-02-23T06:36:42;12.80;;;6.80;;
69005;SDS011;56061;51.748;19.620;2024-02-23T06:39:09;15.70;;;9.00;;
69005;SDS011;56061;51.748;19.620;2024-02-23T06:41:38;9.70;;;4.90;;
69005;SDS011;56061;51.748;19.620;2024-02-23T06:44:07;14.20;;;8.00;;
69005;SDS011;56061;51.748;19.620;2024-02-23T06:46:34;12.20;;;6.40;;
69005;SDS011;56061;51.748;19.620;2024-02-23T06:49:26;13.80;;;7.30;;
69005;SDS011;56061;51.748;19.620;2024-02-23T06:51:52;14.90;;;8.40;;
69005;SDS011;56061;51.748;19.620;2024-02-23T06:54:19;14.60;;;7.90;;
69005;SDS011;56061;51.748;19.620;2024-02-23T06:56:46;14.70;;;8.70;;
69005;SDS011;56061;51.748;19.620;2024-02-23T06:59:13;10.60;;;5.90;;
69005;SDS011;56061;51.748;19.620;2024-02-23T07:01:50;9.50;;;4.80;;
69005;SDS011;56061;51.748;19.620;2024-02-23T07:04:17;10.60;;;5.40;;
69005;SDS011;56061;51.748;19.620;2024-02-23T07:06:45;8.70;;;5.10;;
69005;SDS011;56061;51.748;19.620;2024-02-23T07:09:11;9.20;;;5.00;;
69005;SDS011;56061;51.748;19.620;2024-02-23T07:11:47;10.50;;;6.20;;
69005;SDS011;56061;51.748;19.620;2024-02-23T07:14:13;10.50;;;6.00;;
69005;SDS011;56061;51.748;19.620;2024-02-23T07:16:43;9.60;;;5.10;;
69005;SDS011;56061;51.748;19.620;2024-02-23T07:19:10;12.20;;;5.80;;
69005;SDS011;56061;51.748;19.620;2024-02-23T07:21:43;13.40;;;5.70;;
69005;SDS011;56061;51.748;19.620;2024-02-23T07:24:09;11.40;;;6.30;;
69005;SDS011;56061;51.748;19.620;2024-02-23T07:26:36;14.30;;;7.20;;
69005;SDS011;56061;51.748;19.620;2024-02-23T07:29:03;20.30;;;10.50;;
69005;SDS011;56061;51.748;19.620;2024-02-23T07:31:29;21.50;;;10.20;;
69005;SDS011;56061;51.748;19.620;2024-02-23T07:33:56;21.00;;;14.10;;
69005;SDS011;56061;51.748;19.620;2024-02-23T07:36:23;17.50;;;10.80;;
69005;SDS011;56061;51.748;19.620;2024-02-23T07:38:49;11.90;;;7.00;;
69005;SDS011;56061;51.748;19.620;2024-02-23T07:41:16;12.90;;;8.30;;
69005;SDS011;56061;51.748;19.620;2024-02-23T07:43:45;11.00;;;6.30;;
69005;SDS011;56061;51.748;19.620;2024-02-23T07:46:12;10.50;;;5.30;;
69005;SDS011;56061;51.748;19.620;2024-02-23T07:48:45;11.00;;;6.70;;
69005;SDS011;56061;51.748;19.620;2024-02-23T07:51:13;11.10;;;7.70;;
69005;SDS011;56061;51.748;19.620;2024-02-23T07:53:40;13.10;;;9.10;;
69005;SDS011;56061;51.748;19.620;2024-02-23T07:56:07;10.30;;;6.20;;
69005;SDS011;56061;51.748;19.620;2024-02-23T07:58:34;9.20;;;5.10;;
69005;SDS011;56061;51.748;19.620;2024-02-23T08:01:00;9.80;;;6.50;;
69005;SDS011;56061;51.748;19.620;2024-02-23T08:03:41;10.20;;;6.80;;
69005;SDS011;56061;51.748;19.620;2024-02-23T08:06:09;11.00;;;7.50;;
69005;SDS011;56061;51.748;19.620;2024-02-23T08:08:36;10.80;;;6.80;;
69005;SDS011;56061;51.748;19.620;2024-02-23T08:11:03;12.60;;;9.20;;
69005;SDS011;56061;51.748;19.620;2024-02-23T08:13:31;11.20;;;7.00;;
69005;SDS011;56061;51.748;19.620;2024-02-23T08:16:00;10.00;;;7.00;;
69005;SDS011;56061;51.748;19.620;2024-02-23T08:18:27;15.60;;;9.50;;
69005;SDS011;56061;51.748;19.620;2024-02-23T08:20:54;11.80;;;7.10;;
69005;SDS011;56061;51.748;19.620;2024-02-23T08:23:20;11.20;;;6.40;;
69005;SDS011;56061;51.748;19.620;2024-02-23T08:26:00;12.10;;;6.70;;
69005;SDS011;56061;51.748;19.620;2024-02-23T08:28:27;11.20;;;7.50;;
69005;SDS011;56061;51.748;19.620;2024-02-23T08:30:54;11.60;;;5.80;;
69005;SDS011;56061;51.748;19.620;2024-02-23T08:33:20;15.40;;;9.60;;
69005;SDS011;56061;51.748;19.620;2024-02-23T08:35:47;10.70;;;6.60;;
69005;SDS011;56061;51.748;19.620;2024-02-23T08:38:41;8.60;;;5.00;;
69005;SDS011;56061;51.748;19.620;2024-02-23T08:41:08;10.10;;;5.10;;
69005;SDS011;56061;51.748;19.620;2024-02-23T08:43:35;11.50;;;7.30;;
69005;SDS011;56061;51.748;19.620;2024-02-23T08:46:02;12.80;;;8.00;;
69005;SDS011;56061;51.748;19.620;2024-02-23T08:48:35;15.20;;;8.80;;
69005;SDS011;56061;51.748;19.620;2024-02-23T08:51:01;14.70;;;8.90;;
69005;SDS011;56061;51.748;19.620;2024-02-23T08:53:28;11.60;;;6.20;;
69005;SDS011;56061;51.748;19.620;2024-02-23T08:55:54;14.50;;;9.60;;
69005;SDS011;56061;51.748;19.620;2024-02-23T08:58:21;13.10;;;9.00;;
69005;SDS011;56061;51.748;19.620;2024-02-23T09:00:54;13.20;;;8.70;;
69005;SDS011;56061;51.748;19.620;2024-02-23T09:03:20;13.60;;;7.90;;
69005;SDS011;56061;51.748;19.620;2024-02-23T09:05:47;14.40;;;9.70;;
69005;SDS011;56061;51.748;19.620;2024-02-23T09:08:14;13.70;;;8.80;;
69005;SDS011;56061;51.748;19.620;2024-02-23T09:10:41;13.40;;;9.30;;
69005;SDS011;56061;51.748;19.620;2024-02-23T09:13:12;10.10;;;6.40;;
69005;SDS011;56061;51.748;19.620;2024-02-23T09:15:38;11.00;;;7.10;;
69005;SDS011;56061;51.748;19.620;2024-02-23T09:18:05;13.20;;;6.90;;
69005;SDS011;56061;51.748;19.620;2024-02-23T09:20:32;12.70;;;7.10;;
69005;SDS011;56061;51.748;19.620;2024-02-23T09:22:58;19.50;;;9.70;;
69005;SDS011;56061;51.748;19.620;2024-02-23T09:25:24;12.70;;;7.60;;
69005;SDS011;56061;51.748;19.620;2024-02-23T09:27:51;11.30;;;6.90;;
69005;SDS011;56061;51.748;19.620;2024-02-23T09:30:22;14.50;;;7.50;;
69005;SDS011;56061;51.748;19.620;2024-02-23T09:32:49;13.50;;;7.40;;
69005;SDS011;56061;51.748;19.620;2024-02-23T09:35:16;11.80;;;6.80;;
69005;SDS011;56061;51.748;19.620;2024-02-23T09:37:42;12.00;;;5.60;;
69005;SDS011;56061;51.748;19.620;2024-02-23T09:40:18;11.10;;;5.90;;
69005;SDS011;56061;51.748;19.620;2024-02-23T09:42:55;13.30;;;6.90;;
69005;SDS011;56061;51.748;19.620;2024-02-23T09:45:26;12.30;;;5.80;;
69005;SDS011;56061;51.748;19.620;2024-02-23T09:47:54;12.60;;;6.90;;
69005;SDS011;56061;51.748;19.620;2024-02-23T09:50:23;13.20;;;6.60;;
69005;SDS011;56061;51.748;19.620;2024-02-23T09:52:51;15.00;;;6.70;;
69005;SDS011;56061;51.748;19.620;2024-02-23T09:55:21;14.10;;;6.10;;
69005;SDS011;56061;51.748;19.620;2024-02-23T09:57:51;15.10;;;7.50;;
69005;SDS011;56061;51.748;19.620;2024-02-23T10:00:23;18.60;;;9.30;;
69005;SDS011;56061;51.748;19.620;2024-02-23T10:02:50;17.10;;;7.80;;
69005;SDS011;56061;51.748;19.620;2024-02-23T10:05:17;14.20;;;7.40;;
69005;SDS011;56061;51.748;19.620;2024-02-23T10:07:45;15.20;;;6.70;;
69005;SDS011;56061;51.748;19.620;2024-02-23T10:10:13;13.80;;;6.20;;
69005;SDS011;56061;51.748;19.620;2024-02-23T10:12:39;13.00;;;6.80;;
69005;SDS011;56061;51.748;19.620;2024-02-23T10:15:12;13.40;;;6.40;;
69005;SDS011;56061;51.748;19.620;2024-02-23T10:17:39;16.00;;;7.80;;
69005;SDS011;56061;51.748;19.620;2024-02-23T10:20:07;13.10;;;7.30;;
69005;SDS011;56061;51.748;19.620;2024-02-23T10:22:35;13.40;;;6.60;;
69005;SDS011;56061;51.748;19.620;2024-02-23T10:25:01;10.10;;;5.70;;
69005;SDS011;56061;51.748;19.620;2024-02-23T10:27:31;12.90;;;6.70;;
69005;SDS011;56061;51.748;19.620;2024-02-23T10:29:58;11.50;;;5.70;;
69005;SDS011;56061;51.748;19.620;2024-02-23T10:32:25;10.40;;;6.00;;
69005;SDS011;56061;51.748;19.620;2024-02-23T10:37:26;10.90;;;6.40;;
69005;SDS011;56061;51.748;19.620;2024-02-23T10:42:31;12.10;;;6.40;;
69005;SDS011;56061;51.748;19.620;2024-02-23T10:45:01;13.10;;;7.80;;
69005;SDS011;56061;51.748;19.620;2024-02-23T10:47:30;13.20;;;7.50;;
69005;SDS011;56061;51.748;19.620;2024-02-23T10:52:51;11.70;;;6.80;;
69005;SDS011;56061;51.748;19.620;2024-02-23T10:55:19;11.60;;;6.50;;
69005;SDS011;56061;51.748;19.620;2024-02-23T10:57:48;9.60;;;5.40;;
69005;SDS011;56061;51.748;19.620;2024-02-23T11:00:18;10.80;;;5.10;;
69005;SDS011;56061;51.748;19.620;2024-02-23T11:02:50;10.70;;;5.60;;
69005;SDS011;56061;51.748;19.620;2024-02-23T11:05:19;11.80;;;5.10;;
69005;SDS011;56061;51.748;19.620;2024-02-23T11:07:46;17.50;;;7.60;;
69005;SDS011;56061;51.748;19.620;2024-02-23T11:10:22;18.90;;;8.10;;
69005;SDS011;56061;51.748;19.620;2024-02-23T11:12:59;16.50;;;7.50;;
69005;SDS011;56061;51.748;19.620;2024-02-23T11:15:28;18.00;;;8.50;;
69005;SDS011;56061;51.748;19.620;2024-02-23T11:17:56;14.40;;;7.60;;
69005;SDS011;56061;51.748;19.620;2024-02-23T11:20:23;15.60;;;7.60;;
69005;SDS011;56061;51.748;19.620;2024-02-23T11:22:57;20.60;;;8.60;;
69005;SDS011;56061;51.748;19.620;2024-02-23T11:25:29;19.80;;;9.30;;
69005;SDS011;56061;51.748;19.620;2024-02-23T11:27:55;19.60;;;8.40;;
69005;SDS011;56061;51.748;19.620;2024-02-23T11:30:22;19.70;;;8.30;;
69005;SDS011;56061;51.748;19.620;2024-02-23T11:32:58;18.10;;;8.60;;
69005;SDS011;56061;51.748;19.620;2024-02-23T11:35:27;17.60;;;8.90;;
69005;SDS011;56061;51.748;19.620;2024-02-23T11:37:55;14.50;;;7.90;;
69005;SDS011;56061;51.748;19.620;2024-02-23T11:40:30;11.50;;;6.80;;
69005;SDS011;56061;51.748;19.620;2024-02-23T11:43:22;15.50;;;9.40;;
69005;SDS011;56061;51.748;19.620;2024-02-23T11:45:49;14.20;;;8.30;;
69005;SDS011;56061;51.748;19.620;2024-02-23T11:48:17;13.80;;;9.90;;
69005;SDS011;56061;51.748;19.620;2024-02-23T11:50:59;16.60;;;10.00;;
69005;SDS011;56061;51.748;19.620;2024-02-23T11:53:25;19.40;;;10.20;;
69005;SDS011;56061;51.748;19.620;2024-02-23T11:55:53;19.70;;;10.70;;
69005;SDS011;56061;51.748;19.620;2024-02-23T11:58:20;18.20;;;11.50;;
69005;SDS011;56061;51.748;19.620;2024-02-23T12:00:47;20.90;;;11.70;;
69005;SDS011;56061;51.748;19.620;2024-02-23T12:03:38;27.50;;;12.70;;
69005;SDS011;56061;51.748;19.620;2024-02-23T12:06:06;42.70;;;18.00;;
69005;SDS011;56061;51.748;19.620;2024-02-23T12:08:34;30.20;;;15.30;;
69005;SDS011;56061;51.748;19.620;2024-02-23T12:11:05;20.20;;;10.70;;
69005;SDS011;56061;51.748;19.620;2024-02-23T12:13:40;23.30;;;13.50;;
69005;SDS011;56061;51.748;19.620;2024-02-23T12:16:07;24.40;;;12.90;;
69005;SDS011;56061;51.748;19.620;2024-02-23T12:18:35;28.60;;;15.30;;
69005;SDS011;56061;51.748;19.620;2024-02-23T12:21:06;27.40;;;15.70;;
69005;SDS011;56061;51.748;19.620;2024-02-23T12:23:42;26.00;;;15.10;;
69005;SDS011;56061;51.748;19.620;2024-02-23T12:26:13;20.50;;;11.00;;
69005;SDS011;56061;51.748;19.620;2024-02-23T12:28:41;20.60;;;9.60;;
69005;SDS011;56061;51.748;19.620;2024-02-23T12:31:08;17.60;;;8.80;;
69005;SDS011;56061;51.748;19.620;2024-02-23T12:33:37;15.50;;;8.50;;
69005;SDS011;56061;51.748;19.620;2024-02-23T12:36:10;14.70;;;8.10;;
69005;SDS011;56061;51.748;19.620;2024-02-23T12:38:38;17.50;;;10.30;;
69005;SDS011;56061;51.748;19.620;2024-02-23T12:41:04;14.50;;;7.50;;
69005;SDS011;56061;51.748;19.620;2024-02-23T12:43:31;13.90;;;7.30;;
69005;SDS011;56061;51.748;19.620;2024-02-23T12:45:58;17.80;;;9.80;;
69005;SDS011;56061;51.748;19.620;2024-02-23T12:48:25;23.90;;;12.10;;
69005;SDS011;56061;51.748;19.620;2024-02-23T12:50:51;25.90;;;13.80;;
69005;SDS011;56061;51.748;19.620;2024-02-23T12:53:34;36.60;;;18.40;;
69005;SDS011;56061;51.748;19.620;2024-02-23T12:56:04;26.30;;;14.40;;
69005;SDS011;56061;51.748;19.620;2024-02-23T12:58:32;30.20;;;15.10;;
69005;SDS011;56061;51.748;19.620;2024-02-23T13:00:58;24.10;;;13.20;;
69005;SDS011;56061;51.748;19.620;2024-02-23T13:03:25;16.10;;;8.40;;
69005;SDS011;56061;51.748;19.620;2024-02-23T13:05:54;19.40;;;9.90;;
69005;SDS011;56061;51.748;19.620;2024-02-23T13:08:22;13.30;;;6.80;;
69005;SDS011;56061;51.748;19.620;2024-02-23T13:10:53;12.30;;;6.20;;
69005;SDS011;56061;51.748;19.620;2024-02-23T13:13:21;11.70;;;6.40;;
69005;SDS011;56061;51.748;19.620;2024-02-23T13:15:50;12.60;;;6.80;;
69005;SDS011;56061;51.748;19.620;2024-02-23T13:18:18;11.80;;;6.30;;
69005;SDS011;56061;51.748;19.620;2024-02-23T13:20:46;13.80;;;7.00;;
69005;SDS011;56061;51.748;19.620;2024-02-23T13:23:19;11.90;;;6.10;;
69005;SDS011;56061;51.748;19.620;2024-02-23T13:25:46;11.20;;;6.10;;
69005;SDS011;56061;51.748;19.620;2024-02-23T13:28:12;14.20;;;8.40;;
69005;SDS011;56061;51.748;19.620;2024-02-23T13:30:39;14.40;;;8.00;;
69005;SDS011;56061;51.748;19.620;2024-02-23T13:33:06;12.90;;;8.10;;
69005;SDS011;56061;51.748;19.620;2024-02-23T13:35:37;14.20;;;8.80;;
69005;SDS011;56061;51.748;19.620;2024-02-23T13:38:10;17.50;;;9.90;;
69005;SDS011;56061;51.748;19.620;2024-02-23T13:40:37;16.50;;;10.90;;
69005;SDS011;56061;51.748;19.620;2024-02-23T13:43:04;17.40;;;9.90;;
69005;SDS011;56061;51.748;19.620;2024-02-23T13:45:30;17.20;;;8.70;;
69005;SDS011;56061;51.748;19.620;2024-02-23T13:47:59;16.80;;;9.50;;
69005;SDS011;56061;51.748;19.620;2024-02-23T13:50:28;15.10;;;8.40;;
69005;SDS011;56061;51.748;19.620;2024-02-23T13:52:56;15.40;;;8.60;;
69005;SDS011;56061;51.748;19.620;2024-02-23T13:55:23;10.10;;;5.60;;
69005;SDS011;56061;51.748;19.620;2024-02-23T13:57:50;10.50;;;5.80;;
69005;SDS011;56061;51.748;19.620;2024-02-23T14:00:18;11.20;;;6.70;;
69005;SDS011;56061;51.748;19.620;2024-02-23T14:02:46;12.60;;;6.70;;
69005;SDS011;56061;51.748;19.620;2024-02-23T14:05:14;12.70;;;7.60;;
69005;SDS011;56061;51.748;19.620;2024-02-23T14:07:45;12.70;;;6.90;;
69005;SDS011;56061;51.748;19.620;2024-02-23T14:10:12;12.90;;;6.40;;
69005;SDS011;56061;51.748;19.620;2024-02-23T14:12:39;14.30;;;7.00;;
69005;SDS011;56061;51.748;19.620;2024-02-23T14:15:14;15.30;;;8.10;;
69005;SDS011;56061;51.748;19.620;2024-02-23T14:17:41;14.80;;;8.00;;
69005;SDS011;56061;51.748;19.620;2024-02-23T14:20:08;15.00;;;8.00;;
69005;SDS011;56061;51.748;19.620;2024-02-23T14:22:35;14.10;;;7.40;;
69005;SDS011;56061;51.748;19.620;2024-02-23T14:25:02;14.30;;;7.20;;
69005;SDS011;56061;51.748;19.620;2024-02-23T14:27:54;14.70;;;8.10;;
69005;SDS011;56061;51.748;19.620;2024-02-23T14:30:22;15.60;;;8.30;;
69005;SDS011;56061;51.748;19.620;2024-02-23T14:32:49;14.30;;;8.20;;
69005;SDS011;56061;51.748;19.620;2024-02-23T14:35:15;16.80;;;8.70;;
69005;SDS011;56061;51.748;19.620;2024-02-23T14:37:56;17.20;;;9.00;;
69005;SDS011;56061;51.748;19.620;2024-02-23T14:40:22;15.80;;;8.30;;
69005;SDS011;56061;51.748;19.620;2024-02-23T14:42:49;16.60;;;8.80;;